sensor_id;sensor_type;location;lat;lon;timestamp;P1;durP1;ratioP1;P2;durP2;ratioP2
10005;SDS011;5042;42.626;23.382;2024-01-16T00:01:00;18.63;;;12.10;;
10005;SDS011;5042;42.626;23.382;2024-01-16T00:03:27;17.37;;;12.33;;
10005;SDS011;5042;42.626;23.382;2024-01-16T00:05:54;18.40;;;12.30;;
10005;SDS011;5042;42.626;23.382;2024-01-16T00:08:22;18.03;;;11.43;;
10005;SDS011;5042;42.626;23.382;2024-01-16T00:10:50;16.83;;;11.70;;
10005;SDS011;5042;42.626;23.382;2024-01-16T00:13:16;17.13;;;12.60;;
10005;SDS011;5042;42.626;23.382;2024-01-16T00:15:43;16.87;;;12.50;;
10005;SDS011;5042;42.626;23.382;2024-01-16T00:18:10;17.93;;;11.97;;
10005;SDS011;5042;42.626;23.382;2024-01-16T00:20:37;17.30;;;11.67;;
10005;SDS011;5042;42.626;23.382;2024-01-16T00:23:04;19.17;;;12.47;;
10005;SDS011;5042;42.626;23.382;2024-01-16T00:25:33;15.77;;;12.27;;
10005;SDS011;5042;42.626;23.382;2024-01-16T00:28:01;16.17;;;12.40;;
10005;SDS011;5042;42.626;23.382;2024-01-16T00:30:28;15.83;;;11.17;;
10005;SDS011;5042;42.626;23.382;2024-01-16T00:32:55;14.23;;;11.57;;
10005;SDS011;5042;42.626;23.382;2024-01-16T00:35:22;15.73;;;12.00;;
10005;SDS011;5042;42.626;23.382;2024-01-16T00:37:49;16.90;;;12.27;;
10005;SDS011;5042;42.626;23.382;2024-01-16T00:40:17;17.33;;;11.97;;
10005;SDS011;5042;42.626;23.382;2024-01-16T00:42:45;16.50;;;11.30;;
10005;SDS011;5042;42.626;23.382;2024-01-16T00:45:12;10.07;;;7.40;;
10005;SDS011;5042;42.626;23.382;2024-01-16T00:47:39;17.77;;;11.57;;
10005;SDS011;5042;42.626;23.382;2024-01-16T00:50:06;14.13;;;10.10;;
10005;SDS011;5042;42.626;23.382;2024-01-16T00:52:34;17.13;;;11.33;;
10005;SDS011;5042;42.626;23.382;2024-01-16T00:55:01;14.50;;;10.83;;
10005;SDS011;5042;42.626;23.382;2024-01-16T00:57:28;12.70;;;10.67;;
10005;SDS011;5042;42.626;23.382;2024-01-16T00:59:56;15.87;;;11.13;;
10005;SDS011;5042;42.626;23.382;2024-01-16T01:02:23;13.67;;;9.73;;
10005;SDS011;5042;42.626;23.382;2024-01-16T01:04:50;11.73;;;9.27;;
10005;SDS011;5042;42.626;23.382;2024-01-16T01:07:17;12.57;;;9.90;;
10005;SDS011;5042;42.626;23.382;2024-01-16T01:09:44;12.97;;;9.47;;
10005;SDS011;5042;42.626;23.382;2024-01-16T01:12:10;14.97;;;10.20;;
10005;SDS011;5042;42.626;23.382;2024-01-16T01:14:37;14.47;;;10.37;;
10005;SDS011;5042;42.626;23.382;2024-01-16T01:17:06;12.37;;;9.67;;
10005;SDS011;5042;42.626;23.382;2024-01-16T01:19:33;13.67;;;9.97;;
10005;SDS011;5042;42.626;23.382;2024-01-16T01:22:00;13.63;;;10.07;;
10005;SDS011;5042;42.626;23.382;2024-01-16T01:24:27;12.77;;;9.57;;
10005;SDS011;5042;42.626;23.382;2024-01-16T01:26:54;13.37;;;10.13;;
10005;SDS011;5042;42.626;23.382;2024-01-16T01:29:20;12.97;;;9.43;;
10005;SDS011;5042;42.626;23.382;2024-01-16T01:31:47;12.63;;;9.60;;
10005;SDS011;5042;42.626;23.382;2024-01-16T01:34:16;13.63;;;9.80;;
10005;SDS011;5042;42.626;23.382;2024-01-16T01:36:43;13.77;;;9.83;;
10005;SDS011;5042;42.626;23.382;2024-01-16T01:39:09;16.37;;;9.37;;
10005;SDS011;5042;42.626;23.382;2024-01-16T01:41:37;15.53;;;9.70;;
10005;SDS011;5042;42.626;23.382;2024-01-16T01:44:05;11.00;;;9.20;;
10005;SDS011;5042;42.626;23.382;2024-01-16T01:46:32;14.27;;;9.13;;
10005;SDS011;5042;42.626;23.382;2024-01-16T01:49:01;12.50;;;9.47;;
10005;SDS011;5042;42.626;23.382;2024-01-16T01:51:30;11.90;;;9.00;;
10005;SDS011;5042;42.626;23.382;2024-01-16T01:53:57;12.40;;;9.30;;
10005;SDS011;5042;42.626;23.382;2024-01-16T01:56:25;14.63;;;9.73;;
10005;SDS011;5042;42.626;23.382;2024-01-16T01:58:54;12.70;;;8.73;;
10005;SDS011;5042;42.626;23.382;2024-01-16T02:01:23;13.03;;;9.00;;
10005;SDS011;5042;42.626;23.382;2024-01-16T02:03:52;12.37;;;8.57;;
10005;SDS011;5042;42.626;23.382;2024-01-16T02:06:21;10.60;;;8.23;;
10005;SDS011;5042;42.626;23.382;2024-01-16T02:08:50;11.03;;;8.70;;
10005;SDS011;5042;42.626;23.382;2024-01-16T02:11:17;13.83;;;8.73;;
10005;SDS011;5042;42.626;23.382;2024-01-16T02:13:44;12.43;;;8.60;;
10005;SDS011;5042;42.626;23.382;2024-01-16T02:16:18;11.07;;;8.50;;
10005;SDS011;5042;42.626;23.382;2024-01-16T02:18:46;10.33;;;7.27;;
10005;SDS011;5042;42.626;23.382;2024-01-16T02:21:13;9.13;;;7.30;;
10005;SDS011;5042;42.626;23.382;2024-01-16T02:23:45;9.23;;;6.80;;
10005;SDS011;5042;42.626;23.382;2024-01-16T02:26:12;9.27;;;6.73;;
10005;SDS011;5042;42.626;23.382;2024-01-16T02:28:40;9.80;;;7.23;;
10005;SDS011;5042;42.626;23.382;2024-01-16T02:31:07;8.87;;;7.00;;
10005;SDS011;5042;42.626;23.382;2024-01-16T02:33:34;8.73;;;6.87;;
10005;SDS011;5042;42.626;23.382;2024-01-16T02:36:01;8.03;;;6.73;;
10005;SDS011;5042;42.626;23.382;2024-01-16T02:38:28;8.53;;;6.10;;
10005;SDS011;5042;42.626;23.382;2024-01-16T02:40:56;6.93;;;6.03;;
10005;SDS011;5042;42.626;23.382;2024-01-16T02:43:23;7.83;;;5.57;;
10005;SDS011;5042;42.626;23.382;2024-01-16T02:45:51;6.33;;;5.63;;
10005;SDS011;5042;42.626;23.382;2024-01-16T02:48:19;6.33;;;5.10;;
10005;SDS011;5042;42.626;23.382;2024-01-16T02:50:45;7.70;;;5.67;;
10005;SDS011;5042;42.626;23.382;2024-01-16T02:53:13;7.33;;;5.70;;
10005;SDS011;5042;42.626;23.382;2024-01-16T02:55:40;6.37;;;4.83;;
10005;SDS011;5042;42.626;23.382;2024-01-16T02:58:08;7.67;;;5.70;;
10005;SDS011;5042;42.626;23.382;2024-01-16T03:00:35;5.93;;;5.33;;
10005;SDS011;5042;42.626;23.382;2024-01-16T03:03:03;8.23;;;6.03;;
10005;SDS011;5042;42.626;23.382;2024-01-16T03:05:30;7.97;;;5.47;;
10005;SDS011;5042;42.626;23.382;2024-01-16T03:07:57;7.63;;;6.10;;
10005;SDS011;5042;42.626;23.382;2024-01-16T03:10:23;8.97;;;5.87;;
10005;SDS011;5042;42.626;23.382;2024-01-16T03:12:50;7.43;;;5.67;;
10005;SDS011;5042;42.626;23.382;2024-01-16T03:15:19;7.70;;;5.90;;
10005;SDS011;5042;42.626;23.382;2024-01-16T03:17:47;8.10;;;5.70;;
10005;SDS011;5042;42.626;23.382;2024-01-16T03:20:14;8.20;;;5.93;;
10005;SDS011;5042;42.626;23.382;2024-01-16T03:22:41;7.20;;;6.37;;
10005;SDS011;5042;42.626;23.382;2024-01-16T03:25:08;8.33;;;6.33;;
10005;SDS011;5042;42.626;23.382;2024-01-16T03:27:36;7.67;;;6.13;;
10005;SDS011;5042;42.626;23.382;2024-01-16T03:30:03;8.23;;;6.30;;
10005;SDS011;5042;42.626;23.382;2024-01-16T03:32:32;8.77;;;7.03;;
10005;SDS011;5042;42.626;23.382;2024-01-16T03:34:59;8.80;;;7.27;;
10005;SDS011;5042;42.626;23.382;2024-01-16T03:37:26;8.53;;;6.93;;
10005;SDS011;5042;42.626;23.382;2024-01-16T03:39:53;7.47;;;6.63;;
10005;SDS011;5042;42.626;23.382;2024-01-16T03:42:22;9.50;;;6.97;;
10005;SDS011;5042;42.626;23.382;2024-01-16T03:44:49;7.83;;;5.77;;
10005;SDS011;5042;42.626;23.382;2024-01-16T03:47:16;5.83;;;5.23;;
10005;SDS011;5042;42.626;23.382;2024-01-16T03:49:44;5.90;;;5.23;;
10005;SDS011;5042;42.626;23.382;2024-01-16T03:52:11;5.73;;;5.13;;
10005;SDS011;5042;42.626;23.382;2024-01-16T03:54:38;5.50;;;5.00;;
10005;SDS011;5042;42.626;23.382;2024-01-16T03:57:05;5.43;;;4.93;;
10005;SDS011;5042;42.626;23.382;2024-01-16T03:59:32;5.83;;;4.87;;
10005;SDS011;5042;42.626;23.382;2024-01-16T04:02:00;5.07;;;4.67;;
10005;SDS011;5042;42.626;23.382;2024-01-16T04:04:28;5.17;;;4.67;;
10005;SDS011;5042;42.626;23.382;2024-01-16T04:06:56;5.77;;;5.27;;
10005;SDS011;5042;42.626;23.382;2024-01-16T04:09:23;5.53;;;5.03;;
10005;SDS011;5042;42.626;23.382;2024-01-16T04:11:50;5.27;;;4.83;;
10005;SDS011;5042;42.626;23.382;2024-01-16T04:14:17;4.87;;;4.47;;
10005;SDS011;5042;42.626;23.382;2024-01-16T04:16:45;4.77;;;4.37;;
10005;SDS011;5042;42.626;23.382;2024-01-16T04:19:12;3.67;;;3.43;;
10005;SDS011;5042;42.626;23.382;2024-01-16T04:21:38;3.90;;;3.60;;
10005;SDS011;5042;42.626;23.382;2024-01-16T04:24:07;4.03;;;3.73;;
10005;SDS011;5042;42.626;23.382;2024-01-16T04:26:35;3.13;;;2.93;;
10005;SDS011;5042;42.626;23.382;2024-01-16T04:29:02;3.40;;;3.10;;
10005;SDS011;5042;42.626;23.382;2024-01-16T04:31:30;3.30;;;3.00;;
10005;SDS011;5042;42.626;23.382;2024-01-16T04:33:58;3.13;;;2.93;;
10005;SDS011;5042;42.626;23.382;2024-01-16T04:36:24;3.83;;;3.07;;
10005;SDS011;5042;42.626;23.382;2024-01-16T04:38:51;3.17;;;2.97;;
10005;SDS011;5042;42.626;23.382;2024-01-16T04:41:20;2.90;;;2.70;;
10005;SDS011;5042;42.626;23.382;2024-01-16T04:43:46;3.17;;;2.97;;
10005;SDS011;5042;42.626;23.382;2024-01-16T04:46:15;3.40;;;3.10;;
10005;SDS011;5042;42.626;23.382;2024-01-16T04:48:42;3.30;;;3.10;;
10005;SDS011;5042;42.626;23.382;2024-01-16T04:51:09;3.33;;;3.03;;
10005;SDS011;5042;42.626;23.382;2024-01-16T04:53:36;3.23;;;3.03;;
10005;SDS011;5042;42.626;23.382;2024-01-16T04:56:03;3.03;;;2.83;;
10005;SDS011;5042;42.626;23.382;2024-01-16T04:58:32;3.10;;;2.90;;
10005;SDS011;5042;42.626;23.382;2024-01-16T05:00:59;3.03;;;2.83;;
10005;SDS011;5042;42.626;23.382;2024-01-16T05:03:26;3.20;;;2.90;;
10005;SDS011;5042;42.626;23.382;2024-01-16T05:05:53;3.13;;;2.83;;
10005;SDS011;5042;42.626;23.382;2024-01-16T05:08:21;2.87;;;2.67;;
10005;SDS011;5042;42.626;23.382;2024-01-16T05:10:48;2.10;;;1.97;;
10005;SDS011;5042;42.626;23.382;2024-01-16T05:13:15;2.23;;;2.13;;
10005;SDS011;5042;42.626;23.382;2024-01-16T05:15:43;2.43;;;2.23;;
10005;SDS011;5042;42.626;23.382;2024-01-16T05:18:10;3.10;;;2.90;;
10005;SDS011;5042;42.626;23.382;2024-01-16T05:20:37;2.50;;;2.30;;
10005;SDS011;5042;42.626;23.382;2024-01-16T05:23:04;2.93;;;2.70;;
10005;SDS011;5042;42.626;23.382;2024-01-16T05:25:31;2.50;;;2.30;;
10005;SDS011;5042;42.626;23.382;2024-01-16T05:27:58;2.97;;;2.77;;
10005;SDS011;5042;42.626;23.382;2024-01-16T05:30:25;2.60;;;2.40;;
10005;SDS011;5042;42.626;23.382;2024-01-16T05:32:54;1.70;;;1.60;;
10005;SDS011;5042;42.626;23.382;2024-01-16T05:35:26;2.50;;;2.30;;
10005;SDS011;5042;42.626;23.382;2024-01-16T05:37:52;2.60;;;2.40;;
10005;SDS011;5042;42.626;23.382;2024-01-16T05:40:20;2.53;;;2.33;;
10005;SDS011;5042;42.626;23.382;2024-01-16T05:42:48;2.60;;;2.40;;
10005;SDS011;5042;42.626;23.382;2024-01-16T05:45:15;2.60;;;2.50;;
10005;SDS011;5042;42.626;23.382;2024-01-16T05:47:42;2.10;;;2.00;;
10005;SDS011;5042;42.626;23.382;2024-01-16T05:50:10;2.40;;;2.20;;
10005;SDS011;5042;42.626;23.382;2024-01-16T05:52:37;2.73;;;2.47;;
10005;SDS011;5042;42.626;23.382;2024-01-16T05:55:06;2.20;;;2.10;;
10005;SDS011;5042;42.626;23.382;2024-01-16T05:57:33;2.40;;;2.20;;
10005;SDS011;5042;42.626;23.382;2024-01-16T06:00:00;2.90;;;2.60;;
10005;SDS011;5042;42.626;23.382;2024-01-16T06:02:28;2.33;;;2.20;;
10005;SDS011;5042;42.626;23.382;2024-01-16T06:04:55;2.30;;;2.20;;
10005;SDS011;5042;42.626;23.382;2024-01-16T06:07:24;2.00;;;1.90;;
10005;SDS011;5042;42.626;23.382;2024-01-16T06:09:51;2.73;;;2.53;;
10005;SDS011;5042;42.626;23.382;2024-01-16T06:12:18;2.70;;;2.50;;
10005;SDS011;5042;42.626;23.382;2024-01-16T06:14:45;2.70;;;2.50;;
10005;SDS011;5042;42.626;23.382;2024-01-16T06:17:12;2.70;;;2.50;;
10005;SDS011;5042;42.626;23.382;2024-01-16T06:19:39;2.10;;;2.00;;
10005;SDS011;5042;42.626;23.382;2024-01-16T06:22:06;2.43;;;2.23;;
10005;SDS011;5042;42.626;23.382;2024-01-16T06:24:35;2.53;;;2.43;;
10005;SDS011;5042;42.626;23.382;2024-01-16T06:27:03;2.37;;;2.27;;
10005;SDS011;5042;42.626;23.382;2024-01-16T06:29:31;2.37;;;2.20;;
10005;SDS011;5042;42.626;23.382;2024-01-16T06:31:58;2.80;;;2.50;;
10005;SDS011;5042;42.626;23.382;2024-01-16T06:34:26;2.87;;;2.60;;
10005;SDS011;5042;42.626;23.382;2024-01-16T06:36:53;2.90;;;2.70;;
10005;SDS011;5042;42.626;23.382;2024-01-16T06:39:20;2.90;;;2.70;;
10005;SDS011;5042;42.626;23.382;2024-01-16T06:41:48;2.97;;;2.77;;
10005;SDS011;5042;42.626;23.382;2024-01-16T06:44:15;3.07;;;2.87;;
10005;SDS011;5042;42.626;23.382;2024-01-16T06:46:42;3.10;;;2.90;;
10005;SDS011;5042;42.626;23.382;2024-01-16T06:49:09;3.70;;;3.40;;
10005;SDS011;5042;42.626;23.382;2024-01-16T06:51:36;4.00;;;3.60;;
10005;SDS011;5042;42.626;23.382;2024-01-16T06:54:03;3.80;;;3.50;;
10005;SDS011;5042;42.626;23.382;2024-01-16T06:56:30;4.20;;;3.90;;
10005;SDS011;5042;42.626;23.382;2024-01-16T06:58:58;3.97;;;3.67;;
10005;SDS011;5042;42.626;23.382;2024-01-16T07:01:26;3.50;;;3.20;;
10005;SDS011;5042;42.626;23.382;2024-01-16T07:03:53;3.20;;;2.90;;
10005;SDS011;5042;42.626;23.382;2024-01-16T07:06:19;3.10;;;2.23;;
10005;SDS011;5042;42.626;23.382;2024-01-16T07:08:46;2.47;;;2.27;;
10005;SDS011;5042;42.626;23.382;2024-01-16T07:11:13;1.83;;;1.73;;
10005;SDS011;5042;42.626;23.382;2024-01-16T07:13:40;2.10;;;2.00;;
10005;SDS011;5042;42.626;23.382;2024-01-16T07:16:10;1.87;;;1.77;;
10005;SDS011;5042;42.626;23.382;2024-01-16T07:18:37;2.03;;;1.90;;
10005;SDS011;5042;42.626;23.382;2024-01-16T07:21:15;2.17;;;2.00;;
10005;SDS011;5042;42.626;23.382;2024-01-16T07:23:42;2.10;;;2.00;;
10005;SDS011;5042;42.626;23.382;2024-01-16T07:26:09;2.20;;;2.00;;
10005;SDS011;5042;42.626;23.382;2024-01-16T07:28:36;1.97;;;1.87;;
10005;SDS011;5042;42.626;23.382;2024-01-16T07:31:03;2.10;;;2.00;;
10005;SDS011;5042;42.626;23.382;2024-01-16T07:33:32;4.17;;;2.63;;
10005;SDS011;5042;42.626;23.382;2024-01-16T07:35:59;2.60;;;2.40;;
10005;SDS011;5042;42.626;23.382;2024-01-16T07:38:26;5.20;;;2.40;;
10005;SDS011;5042;42.626;23.382;2024-01-16T07:40:53;2.63;;;2.37;;
10005;SDS011;5042;42.626;23.382;2024-01-16T07:43:21;2.63;;;2.40;;
10005;SDS011;5042;42.626;23.382;2024-01-16T07:45:49;2.40;;;2.20;;
10005;SDS011;5042;42.626;23.382;2024-01-16T07:48:15;2.00;;;1.90;;
10005;SDS011;5042;42.626;23.382;2024-01-16T07:50:44;2.33;;;2.17;;
10005;SDS011;5042;42.626;23.382;2024-01-16T07:53:11;2.13;;;1.93;;
10005;SDS011;5042;42.626;23.382;2024-01-16T07:55:38;2.33;;;2.13;;
10005;SDS011;5042;42.626;23.382;2024-01-16T07:58:05;2.13;;;1.80;;
10005;SDS011;5042;42.626;23.382;2024-01-16T08:00:32;2.20;;;2.00;;
10005;SDS011;5042;42.626;23.382;2024-01-16T08:02:59;2.03;;;1.93;;
10005;SDS011;5042;42.626;23.382;2024-01-16T08:05:26;2.37;;;1.90;;
10005;SDS011;5042;42.626;23.382;2024-01-16T08:07:56;2.00;;;1.90;;
10005;SDS011;5042;42.626;23.382;2024-01-16T08:10:23;1.93;;;1.80;;
10005;SDS011;5042;42.626;23.382;2024-01-16T08:12:50;2.83;;;2.43;;
10005;SDS011;5042;42.626;23.382;2024-01-16T08:15:17;2.83;;;2.63;;
10005;SDS011;5042;42.626;23.382;2024-01-16T08:17:44;2.47;;;2.27;;
10005;SDS011;5042;42.626;23.382;2024-01-16T08:20:11;3.37;;;2.47;;
10005;SDS011;5042;42.626;23.382;2024-01-16T08:22:38;2.70;;;2.50;;
10005;SDS011;5042;42.626;23.382;2024-01-16T08:25:07;2.30;;;2.17;;
10005;SDS011;5042;42.626;23.382;2024-01-16T08:27:34;2.53;;;2.13;;
10005;SDS011;5042;42.626;23.382;2024-01-16T08:30:02;2.60;;;2.40;;
10005;SDS011;5042;42.626;23.382;2024-01-16T08:32:30;2.53;;;2.30;;
10005;SDS011;5042;42.626;23.382;2024-01-16T08:34:57;2.80;;;2.60;;
10005;SDS011;5042;42.626;23.382;2024-01-16T08:37:24;2.70;;;2.50;;
10005;SDS011;5042;42.626;23.382;2024-01-16T08:39:51;2.40;;;2.20;;
10005;SDS011;5042;42.626;23.382;2024-01-16T08:42:20;2.63;;;2.43;;
10005;SDS011;5042;42.626;23.382;2024-01-16T08:44:46;2.73;;;2.53;;
10005;SDS011;5042;42.626;23.382;2024-01-16T08:47:13;3.77;;;3.00;;
10005;SDS011;5042;42.626;23.382;2024-01-16T08:49:40;3.77;;;2.90;;
10005;SDS011;5042;42.626;23.382;2024-01-16T08:52:08;2.40;;;2.30;;
10005;SDS011;5042;42.626;23.382;2024-01-16T08:54:36;3.00;;;2.70;;
10005;SDS011;5042;42.626;23.382;2024-01-16T08:57:03;2.97;;;2.53;;
10005;SDS011;5042;42.626;23.382;2024-01-16T08:59:32;2.80;;;2.50;;
10005;SDS011;5042;42.626;23.382;2024-01-16T09:01:59;2.70;;;2.47;;
10005;SDS011;5042;42.626;23.382;2024-01-16T09:04:25;3.87;;;2.70;;
10005;SDS011;5042;42.626;23.382;2024-01-16T09:06:52;2.70;;;2.50;;
10005;SDS011;5042;42.626;23.382;2024-01-16T09:09:19;2.70;;;2.50;;
10005;SDS011;5042;42.626;23.382;2024-01-16T09:11:46;3.33;;;2.60;;
10005;SDS011;5042;42.626;23.382;2024-01-16T09:14:13;2.53;;;2.33;;
10005;SDS011;5042;42.626;23.382;2024-01-16T09:16:41;2.73;;;2.20;;
10005;SDS011;5042;42.626;23.382;2024-01-16T09:19:08;2.40;;;2.20;;
10005;SDS011;5042;42.626;23.382;2024-01-16T09:21:35;2.60;;;2.40;;
10005;SDS011;5042;42.626;23.382;2024-01-16T09:24:03;2.73;;;2.53;;
10005;SDS011;5042;42.626;23.382;2024-01-16T09:26:30;3.53;;;2.57;;
10005;SDS011;5042;42.626;23.382;2024-01-16T09:28:57;2.93;;;2.63;;
10005;SDS011;5042;42.626;23.382;2024-01-16T09:31:24;2.77;;;2.57;;
10005;SDS011;5042;42.626;23.382;2024-01-16T09:33:52;2.97;;;2.17;;
10005;SDS011;5042;42.626;23.382;2024-01-16T09:36:19;3.40;;;2.50;;
10005;SDS011;5042;42.626;23.382;2024-01-16T09:38:46;3.40;;;2.80;;
10005;SDS011;5042;42.626;23.382;2024-01-16T09:41:13;2.57;;;2.37;;
10005;SDS011;5042;42.626;23.382;2024-01-16T09:43:40;2.50;;;2.30;;
10005;SDS011;5042;42.626;23.382;2024-01-16T09:46:07;2.77;;;2.57;;
10005;SDS011;5042;42.626;23.382;2024-01-16T09:48:35;2.63;;;2.30;;
10005;SDS011;5042;42.626;23.382;2024-01-16T09:51:04;3.27;;;2.63;;
10005;SDS011;5042;42.626;23.382;2024-01-16T09:53:31;2.50;;;2.30;;
10005;SDS011;5042;42.626;23.382;2024-01-16T09:56:00;3.23;;;2.70;;
10005;SDS011;5042;42.626;23.382;2024-01-16T09:58:29;2.80;;;2.30;;
10005;SDS011;5042;42.626;23.382;2024-01-16T10:01:00;2.57;;;2.00;;
10005;SDS011;5042;42.626;23.382;2024-01-16T10:03:27;2.43;;;1.90;;
10005;SDS011;5042;42.626;23.382;2024-01-16T10:05:57;2.00;;;1.90;;
10005;SDS011;5042;42.626;23.382;2024-01-16T10:08:27;1.80;;;1.70;;
10005;SDS011;5042;42.626;23.382;2024-01-16T10:10:54;1.90;;;1.80;;
10005;SDS011;5042;42.626;23.382;2024-01-16T10:13:21;2.10;;;2.00;;
10005;SDS011;5042;42.626;23.382;2024-01-16T10:15:49;1.90;;;1.80;;
10005;SDS011;5042;42.626;23.382;2024-01-16T10:18:27;3.03;;;2.13;;
10005;SDS011;5042;42.626;23.382;2024-01-16T10:20:56;2.47;;;2.27;;
10005;SDS011;5042;42.626;23.382;2024-01-16T10:23:23;4.50;;;3.00;;
10005;SDS011;5042;42.626;23.382;2024-01-16T10:26:07;2.37;;;2.13;;
10005;SDS011;5042;42.626;23.382;2024-01-16T10:28:34;3.03;;;2.20;;
10005;SDS011;5042;42.626;23.382;2024-01-16T10:31:02;3.20;;;2.30;;
10005;SDS011;5042;42.626;23.382;2024-01-16T10:33:29;3.40;;;2.33;;
10005;SDS011;5042;42.626;23.382;2024-01-16T10:36:07;2.43;;;2.20;;
10005;SDS011;5042;42.626;23.382;2024-01-16T10:38:35;2.83;;;2.40;;
10005;SDS011;5042;42.626;23.382;2024-01-16T10:41:05;2.80;;;2.40;;
10005;SDS011;5042;42.626;23.382;2024-01-16T10:43:38;4.73;;;3.03;;
10005;SDS011;5042;42.626;23.382;2024-01-16T10:46:08;3.33;;;2.83;;
10005;SDS011;5042;42.626;23.382;2024-01-16T10:48:37;5.13;;;2.70;;
10005;SDS011;5042;42.626;23.382;2024-01-16T10:51:05;2.80;;;2.57;;
10005;SDS011;5042;42.626;23.382;2024-01-16T10:53:34;3.43;;;2.40;;
10005;SDS011;5042;42.626;23.382;2024-01-16T10:56:01;2.63;;;2.43;;
10005;SDS011;5042;42.626;23.382;2024-01-16T10:58:33;2.60;;;2.40;;
10005;SDS011;5042;42.626;23.382;2024-01-16T11:01:02;4.53;;;2.60;;
10005;SDS011;5042;42.626;23.382;2024-01-16T11:03:34;4.07;;;2.60;;
10005;SDS011;5042;42.626;23.382;2024-01-16T11:06:05;2.90;;;2.70;;
10005;SDS011;5042;42.626;23.382;2024-01-16T11:08:35;3.00;;;2.73;;
10005;SDS011;5042;42.626;23.382;2024-01-16T11:11:04;4.63;;;2.60;;
10005;SDS011;5042;42.626;23.382;2024-01-16T11:13:33;2.93;;;2.63;;
10005;SDS011;5042;42.626;23.382;2024-01-16T11:16:00;2.50;;;2.30;;
10005;SDS011;5042;42.626;23.382;2024-01-16T11:18:30;2.50;;;2.30;;
10005;SDS011;5042;42.626;23.382;2024-01-16T11:20:58;3.87;;;2.67;;
10005;SDS011;5042;42.626;23.382;2024-01-16T11:23:25;3.20;;;2.90;;
10005;SDS011;5042;42.626;23.382;2024-01-16T11:25:52;4.33;;;2.40;;
10005;SDS011;5042;42.626;23.382;2024-01-16T11:28:20;2.43;;;2.23;;
10005;SDS011;5042;42.626;23.382;2024-01-16T11:30:56;2.50;;;1.90;;
10005;SDS011;5042;42.626;23.382;2024-01-16T11:33:41;2.13;;;2.03;;
10005;SDS011;5042;42.626;23.382;2024-01-16T11:39:09;4.20;;;2.77;;
10005;SDS011;5042;42.626;23.382;2024-01-16T11:41:52;3.17;;;2.97;;
10005;SDS011;5042;42.626;23.382;2024-01-16T11:44:39;4.13;;;3.37;;
10005;SDS011;5042;42.626;23.382;2024-01-16T11:47:09;4.67;;;3.60;;
10005;SDS011;5042;42.626;23.382;2024-01-16T11:49:41;3.67;;;3.37;;
10005;SDS011;5042;42.626;23.382;2024-01-16T11:52:08;4.50;;;3.47;;
10005;SDS011;5042;42.626;23.382;2024-01-16T11:54:36;5.20;;;3.43;;
10005;SDS011;5042;42.626;23.382;2024-01-16T12:00:18;5.47;;;3.20;;
10005;SDS011;5042;42.626;23.382;2024-01-16T12:02:51;7.53;;;5.67;;
10005;SDS011;5042;42.626;23.382;2024-01-16T12:05:19;6.40;;;2.80;;
10005;SDS011;5042;42.626;23.382;2024-01-16T12:07:46;2.70;;;2.50;;
10005;SDS011;5042;42.626;23.382;2024-01-16T12:10:15;4.03;;;2.50;;
10005;SDS011;5042;42.626;23.382;2024-01-16T12:12:43;4.43;;;2.50;;
10005;SDS011;5042;42.626;23.382;2024-01-16T12:15:14;2.83;;;2.63;;
10005;SDS011;5042;42.626;23.382;2024-01-16T12:20:29;3.03;;;2.40;;
10005;SDS011;5042;42.626;23.382;2024-01-16T12:22:58;4.83;;;4.00;;
10005;SDS011;5042;42.626;23.382;2024-01-16T12:25:27;3.30;;;3.00;;
10005;SDS011;5042;42.626;23.382;2024-01-16T12:27:58;3.50;;;3.20;;
10005;SDS011;5042;42.626;23.382;2024-01-16T12:30:26;4.67;;;3.60;;
10005;SDS011;5042;42.626;23.382;2024-01-16T12:33:08;3.40;;;3.10;;
10005;SDS011;5042;42.626;23.382;2024-01-16T12:35:36;2.60;;;2.40;;
10005;SDS011;5042;42.626;23.382;2024-01-16T12:38:04;3.83;;;2.70;;
10005;SDS011;5042;42.626;23.382;2024-01-16T12:40:34;3.17;;;2.83;;
10005;SDS011;5042;42.626;23.382;2024-01-16T12:43:02;3.80;;;2.80;;
10005;SDS011;5042;42.626;23.382;2024-01-16T12:45:30;3.60;;;2.93;;
10005;SDS011;5042;42.626;23.382;2024-01-16T12:47:59;3.20;;;2.87;;
10005;SDS011;5042;42.626;23.382;2024-01-16T12:50:28;6.47;;;3.40;;
10005;SDS011;5042;42.626;23.382;2024-01-16T12:53:02;4.20;;;3.20;;
10005;SDS011;5042;42.626;23.382;2024-01-16T12:55:31;3.70;;;3.37;;
10005;SDS011;5042;42.626;23.382;2024-01-16T12:58:11;3.83;;;3.10;;
10005;SDS011;5042;42.626;23.382;2024-01-16T13:00:39;4.80;;;2.83;;
10005;SDS011;5042;42.626;23.382;2024-01-16T13:03:06;3.40;;;3.10;;
10005;SDS011;5042;42.626;23.382;2024-01-16T13:05:35;3.77;;;3.17;;
10005;SDS011;5042;42.626;23.382;2024-01-16T13:08:02;3.27;;;2.97;;
10005;SDS011;5042;42.626;23.382;2024-01-16T13:10:29;3.30;;;3.07;;
10005;SDS011;5042;42.626;23.382;2024-01-16T13:13:13;3.87;;;3.10;;
10005;SDS011;5042;42.626;23.382;2024-01-16T13:15:43;3.57;;;3.00;;
10005;SDS011;5042;42.626;23.382;2024-01-16T13:18:17;3.40;;;3.10;;
10005;SDS011;5042;42.626;23.382;2024-01-16T13:20:47;5.20;;;3.70;;
10005;SDS011;5042;42.626;23.382;2024-01-16T13:23:15;4.97;;;3.60;;
10005;SDS011;5042;42.626;23.382;2024-01-16T13:25:42;3.37;;;3.07;;
10005;SDS011;5042;42.626;23.382;2024-01-16T13:28:10;3.67;;;3.30;;
10005;SDS011;5042;42.626;23.382;2024-01-16T13:30:39;3.90;;;3.57;;
10005;SDS011;5042;42.626;23.382;2024-01-16T13:33:06;3.60;;;3.30;;
10005;SDS011;5042;42.626;23.382;2024-01-16T13:35:34;5.87;;;4.83;;
10005;SDS011;5042;42.626;23.382;2024-01-16T13:38:03;4.23;;;3.83;;
10005;SDS011;5042;42.626;23.382;2024-01-16T13:40:30;4.53;;;3.70;;
10005;SDS011;5042;42.626;23.382;2024-01-16T13:42:57;3.50;;;3.20;;
10005;SDS011;5042;42.626;23.382;2024-01-16T13:45:25;3.97;;;3.47;;
10005;SDS011;5042;42.626;23.382;2024-01-16T13:47:52;3.37;;;3.07;;
10005;SDS011;5042;42.626;23.382;2024-01-16T13:50:19;3.50;;;3.27;;
10005;SDS011;5042;42.626;23.382;2024-01-16T13:52:46;5.23;;;2.97;;
10005;SDS011;5042;42.626;23.382;2024-01-16T13:55:14;3.47;;;3.17;;
10005;SDS011;5042;42.626;23.382;2024-01-16T13:57:41;4.00;;;3.27;;
10005;SDS011;5042;42.626;23.382;2024-01-16T14:00:11;3.40;;;3.10;;
10005;SDS011;5042;42.626;23.382;2024-01-16T14:02:40;3.53;;;3.23;;
10005;SDS011;5042;42.626;23.382;2024-01-16T14:05:07;3.43;;;3.13;;
10005;SDS011;5042;42.626;23.382;2024-01-16T14:07:36;3.83;;;3.07;;
10005;SDS011;5042;42.626;23.382;2024-01-16T14:10:04;3.50;;;3.20;;
10005;SDS011;5042;42.626;23.382;2024-01-16T14:12:33;3.87;;;3.50;;
10005;SDS011;5042;42.626;23.382;2024-01-16T14:15:02;3.70;;;3.40;;
10005;SDS011;5042;42.626;23.382;2024-01-16T14:17:34;3.83;;;3.53;;
10005;SDS011;5042;42.626;23.382;2024-01-16T14:20:01;4.83;;;4.10;;
10005;SDS011;5042;42.626;23.382;2024-01-16T14:22:30;5.53;;;4.33;;
10005;SDS011;5042;42.626;23.382;2024-01-16T14:24:57;5.50;;;4.77;;
10005;SDS011;5042;42.626;23.382;2024-01-16T14:27:24;5.53;;;4.27;;
10005;SDS011;5042;42.626;23.382;2024-01-16T14:29:52;4.97;;;4.47;;
10005;SDS011;5042;42.626;23.382;2024-01-16T14:32:19;5.10;;;4.40;;
10005;SDS011;5042;42.626;23.382;2024-01-16T14:34:46;6.83;;;4.10;;
10005;SDS011;5042;42.626;23.382;2024-01-16T14:37:13;4.37;;;3.80;;
10005;SDS011;5042;42.626;23.382;2024-01-16T14:39:42;4.13;;;3.73;;
10005;SDS011;5042;42.626;23.382;2024-01-16T14:42:09;4.60;;;4.20;;
10005;SDS011;5042;42.626;23.382;2024-01-16T14:44:36;4.90;;;4.20;;
10005;SDS011;5042;42.626;23.382;2024-01-16T14:47:04;5.67;;;4.57;;
10005;SDS011;5042;42.626;23.382;2024-01-16T14:49:32;6.13;;;4.60;;
10005;SDS011;5042;42.626;23.382;2024-01-16T14:51:59;4.90;;;4.40;;
10005;SDS011;5042;42.626;23.382;2024-01-16T14:54:27;6.30;;;4.77;;
10005;SDS011;5042;42.626;23.382;2024-01-16T14:56:54;5.97;;;4.53;;
10005;SDS011;5042;42.626;23.382;2024-01-16T14:59:21;5.37;;;4.87;;